createdAt,value
2018-12-01T00:03:06.544Z,19.77
2018-12-01T00:08:01.503Z,23.80
2018-12-01T00:12:56.418Z,19.97
2018-12-01T00:17:51.354Z,21.93
2018-12-01T00:22:46.225Z,22.03
2018-12-01T00:27:42.166Z,21.87
2018-12-01T00:33:49.919Z,24.83
2018-12-01T00:39:24.968Z,27.80
2018-12-01T00:44:20.139Z,25.77
2018-12-01T00:55:19.263Z,22.43
2018-12-01T01:00:28.433Z,22.40
2018-12-01T01:05:24.973Z,23.00
2018-12-01T01:10:27.806Z,25.30
2018-12-01T01:15:23.733Z,24.23
2018-12-01T01:20:21.748Z,27.40
2018-12-01T01:25:16.944Z,26.30
2018-12-01T01:30:19.120Z,26.63
2018-12-01T01:35:14.781Z,25.80
2018-12-01T01:40:19.408Z,26.43
2018-12-01T01:45:17.522Z,24.20
2018-12-01T01:50:16.440Z,25.47
2018-12-01T01:55:13.779Z,24.40
2018-12-01T02:00:23.529Z,25.67
2018-12-01T02:05:21.768Z,27.73
2018-12-01T02:10:18.304Z,24.70
2018-12-01T02:15:16.366Z,25.87
2018-12-01T02:20:14.359Z,23.87
2018-12-01T02:25:20.043Z,27.17
2018-12-01T02:30:21.361Z,24.83
2018-12-01T02:35:31.852Z,26.40
2018-12-01T02:40:28.450Z,22.17
2018-12-01T02:45:40.187Z,25.53
2018-12-01T02:50:35.165Z,25.33
2018-12-01T02:55:30.215Z,23.40
2018-12-01T03:00:25.953Z,21.73
2018-12-01T03:05:23.246Z,20.23
2018-12-01T03:10:18.642Z,24.87
2018-12-01T03:15:19.365Z,23.50
2018-12-01T03:20:16.443Z,21.60
2018-12-01T03:25:17.212Z,23.37
2018-12-01T03:30:12.442Z,25.60
2018-12-01T03:35:13.615Z,19.80
2018-12-01T03:40:08.570Z,21.50
2018-12-01T03:45:03.365Z,24.00
2018-12-01T03:49:58.164Z,22.73
2018-12-01T03:54:53.036Z,26.57
2018-12-01T03:59:47.794Z,30.97
2018-12-01T04:04:42.562Z,29.03
2018-12-01T04:09:37.475Z,27.03
2018-12-01T04:14:32.304Z,29.17
2018-12-01T04:19:27.098Z,25.43
2018-12-01T04:24:21.905Z,29.77
2018-12-01T04:29:16.701Z,26.93
2018-12-01T04:34:11.518Z,25.43
2018-12-01T04:39:09.136Z,29.87
2018-12-01T04:44:04.019Z,24.23
2018-12-01T04:48:58.808Z,25.50
2018-12-01T04:53:53.597Z,25.60
2018-12-01T04:58:50.188Z,30.80
2018-12-01T05:03:45.052Z,29.00
2018-12-01T05:08:40.855Z,29.10
2018-12-01T05:13:35.712Z,27.83
2018-12-01T05:18:37.036Z,26.67
2018-12-01T05:23:31.902Z,25.20
2018-12-01T05:28:26.736Z,24.63
2018-12-01T05:33:21.589Z,21.83
2018-12-01T05:38:16.458Z,24.43
2018-12-01T05:43:11.294Z,23.87
2018-12-01T05:48:06.631Z,24.73
2018-12-01T05:53:01.505Z,22.73
2018-12-01T05:57:56.375Z,93.83
2018-12-01T06:02:51.288Z,36.93
2018-12-01T06:07:46.426Z,29.50
2018-12-01T06:12:41.203Z,29.00
2018-12-01T06:17:36.139Z,34.43
2018-12-01T06:22:30.994Z,25.33
2018-12-01T06:27:25.797Z,22.77
2018-12-01T06:32:20.613Z,22.83
2018-12-01T06:37:15.613Z,23.90
2018-12-01T06:42:10.427Z,24.17
2018-12-01T06:47:05.251Z,21.43
2018-12-01T06:52:00.074Z,22.37
2018-12-01T06:56:54.839Z,21.43
2018-12-01T07:01:49.626Z,20.17
2018-12-01T07:06:44.581Z,21.30
2018-12-01T07:11:39.574Z,23.73
2018-12-01T07:16:34.493Z,21.00
2018-12-01T07:21:29.257Z,23.60
2018-12-01T07:26:24.011Z,19.37
2018-12-01T07:31:18.961Z,19.50
2018-12-01T07:36:13.929Z,20.53
2018-12-01T07:41:08.778Z,21.80
2018-12-01T07:46:03.633Z,23.40
2018-12-01T07:50:58.438Z,23.33
2018-12-01T07:55:53.345Z,23.27
2018-12-01T08:00:48.194Z,25.87
2018-12-01T08:05:43.057Z,20.63
2018-12-01T08:10:37.998Z,21.53
2018-12-01T08:15:33.292Z,23.07
2018-12-01T08:20:28.229Z,20.43
2018-12-01T08:25:23.256Z,21.33
2018-12-01T08:30:22.179Z,23.20
2018-12-01T08:35:17.103Z,38.23
2018-12-01T08:40:14.155Z,40.60
2018-12-01T08:45:11.142Z,39.73
2018-12-01T08:50:12.036Z,21.07
2018-12-01T08:55:08.965Z,16.63
2018-12-01T09:00:04.796Z,20.43
2018-12-01T09:04:59.716Z,17.67
2018-12-01T09:09:54.537Z,15.50
2018-12-01T09:14:49.523Z,14.73
2018-12-01T09:25:13.198Z,14.53
2018-12-01T09:30:27.759Z,15.63
2018-12-01T09:35:22.682Z,16.93
2018-12-01T09:40:20.230Z,16.77
2018-12-01T09:45:16.660Z,15.20
2018-12-01T09:50:32.244Z,14.37
2018-12-01T09:55:33.226Z,13.70
2018-12-01T10:00:31.671Z,13.10
2018-12-01T10:05:38.661Z,12.37
2018-12-01T10:10:41.239Z,14.40
2018-12-01T10:15:44.668Z,13.63
2018-12-01T10:20:43.350Z,14.67
2018-12-01T10:25:39.534Z,12.27
2018-12-01T10:30:34.459Z,11.70
2018-12-01T10:35:34.409Z,13.67
2018-12-01T10:40:33.918Z,10.00
2018-12-01T10:45:36.610Z,9.80
2018-12-01T10:50:39.114Z,10.67
2018-12-01T10:55:35.227Z,12.77
2018-12-01T11:00:39.620Z,11.40
2018-12-01T11:05:36.463Z,10.30
2018-12-01T11:10:32.400Z,11.70
2018-12-01T11:15:29.374Z,10.73
2018-12-01T11:25:31.507Z,12.10
2018-12-01T11:42:56.825Z,9.43
2018-12-01T11:48:03.397Z,9.00
2018-12-01T11:53:01.590Z,10.83
2018-12-01T11:58:01.780Z,10.17
2018-12-01T12:13:51.392Z,8.77
2018-12-01T12:19:08.947Z,10.00
2018-12-01T12:24:04.322Z,7.93
2018-12-01T12:29:03.577Z,9.57
2018-12-01T12:34:06.577Z,10.50
2018-12-01T12:39:04.045Z,10.77
2018-12-01T12:44:06.320Z,8.47
2018-12-01T12:49:02.087Z,8.43
2018-12-01T12:53:57.219Z,4.73
2018-12-01T12:58:58.257Z,9.43
2018-12-01T13:03:53.254Z,8.57
2018-12-01T13:14:22.123Z,12.10
2018-12-01T13:19:24.950Z,13.33
2018-12-01T13:29:29.131Z,10.10
2018-12-01T13:34:24.841Z,11.50
2018-12-01T13:39:20.689Z,11.03
2018-12-01T13:44:20.779Z,10.03
2018-12-01T13:50:23.318Z,17.67
2018-12-01T13:55:29.498Z,9.97
2018-12-01T14:00:28.204Z,8.63
2018-12-01T14:05:29.303Z,7.80
2018-12-01T14:10:26.254Z,10.97
2018-12-01T14:15:23.138Z,8.77
2018-12-01T14:20:36.290Z,9.77
2018-12-01T14:25:32.228Z,10.73
2018-12-01T14:30:36.454Z,7.40
2018-12-01T14:35:34.700Z,6.13
2018-12-01T14:40:37.555Z,8.27
2018-12-01T14:45:34.967Z,8.23
2018-12-01T14:50:30.195Z,7.17
2018-12-01T14:55:34.968Z,10.07
2018-12-01T15:00:32.935Z,13.17
2018-12-01T15:05:28.316Z,13.20
2018-12-01T15:10:34.179Z,16.43
2018-12-01T15:15:34.054Z,13.10
2018-12-01T15:20:33.746Z,16.17
2018-12-01T15:31:22.489Z,17.43
2018-12-01T15:36:31.545Z,15.83
2018-12-01T15:41:29.507Z,12.17
2018-12-01T15:46:26.636Z,12.77
2018-12-01T15:57:40.028Z,8.90
2018-12-01T16:13:22.369Z,9.00
2018-12-01T16:18:39.844Z,8.17
2018-12-01T16:24:14.668Z,6.87
2018-12-01T16:35:06.959Z,9.57
2018-12-01T16:45:31.628Z,7.63
2018-12-01T16:50:43.292Z,8.17
2018-12-01T18:08:06.810Z,10.60
2018-12-01T18:13:16.025Z,17.27
2018-12-01T18:18:24.186Z,16.40
2018-12-01T18:23:20.708Z,16.27
2018-12-01T18:28:24.121Z,14.93
2018-12-01T18:33:56.345Z,13.17
2018-12-01T18:38:59.216Z,15.23
2018-12-01T18:54:58.076Z,14.67
2018-12-01T19:00:00.100Z,17.87
2018-12-01T20:54:20.916Z,9.07
2018-12-01T20:59:18.363Z,14.07
2018-12-01T21:11:46.919Z,19.70
2018-12-01T21:17:16.387Z,17.27
2018-12-01T21:22:17.104Z,22.17
2018-12-01T21:27:11.977Z,15.03
2018-12-01T21:32:18.443Z,11.93
2018-12-01T21:37:35.993Z,10.37
2018-12-01T21:42:39.545Z,10.33
2018-12-01T21:47:46.394Z,7.17
2018-12-01T21:52:44.151Z,6.37
2018-12-01T21:57:46.985Z,6.00
2018-12-01T22:02:48.283Z,5.80
2018-12-01T22:07:50.288Z,7.00
2018-12-01T22:12:50.263Z,8.47
2018-12-01T22:17:48.354Z,6.10
2018-12-01T22:22:43.434Z,7.20
2018-12-01T22:27:58.251Z,8.07
2018-12-01T22:32:58.107Z,7.87
2018-12-01T22:37:54.329Z,7.07
2018-12-01T22:42:50.809Z,10.60
2018-12-01T22:47:46.002Z,11.00
2018-12-01T22:52:41.096Z,9.20
2018-12-01T22:57:38.247Z,9.37
2018-12-01T23:02:33.240Z,8.00
2018-12-01T23:07:28.146Z,6.03
2018-12-01T23:12:23.136Z,7.53
2018-12-01T23:17:18.043Z,6.97
2018-12-01T23:22:15.788Z,7.57
2018-12-01T23:27:10.758Z,5.93
2018-12-01T23:32:06.874Z,6.10
2018-12-01T23:37:01.885Z,5.37
2018-12-01T23:41:57.658Z,6.00
2018-12-01T23:46:52.595Z,4.57
2018-12-01T23:51:47.731Z,5.47
